Time,TemperatureF,DewpointF,PressureIn,WindDirection,WindDirectionDegrees,WindSpeedMPH,WindSpeedGustMPH,Humidity,HourlyPrecipIn,Conditions,Clouds,dailyrainin,SolarRadiationWatts/m^2,SoftwareType,DateUTC
2013-10-30 00:01:00,38.4,32.1,30.25,SE,146,3.5,3.5,78,0.00,CLR,,0.00,0.0,WeatherDisplay:10.37,2013-10-30 04:01:00,
2013-10-30 00:06:00,38.6,32.3,30.24,SSE,163,2.3,2.3,78,0.00,CLR,,0.00,0.0,WeatherDisplay:10.37,2013-10-30 04:06:00,
2013-10-30 00:11:00,38.6,32.3,30.24,SSE,153,2.3,2.3,78,0.00,CLR,,0.00,0.0,WeatherDisplay:10.37,2013-10-30 04:11:00,
2013-10-30 00:16:00,38.6,32.6,30.24,SE,142,2.3,2.3,79,0.00,CLR,,0.00,0.0,WeatherDisplay:10.37,2013-10-30 04:16:00,
2013-10-30 00:21:00,38.6,32.6,30.24,SSE,151,3.5,3.5,79,0.00,CLR,,0.00,0.0,WeatherDisplay:10.37,2013-10-30 04:21:00,
2013-10-30 00:26:00,38.5,32.9,30.24,SSE,151,3.0,3.0,80,0.00,CLR,,0.00,0.0,WeatherDisplay:10.37,2013-10-30 04:26:00,
2013-10-30 00:31:00,38.4,32.8,30.23,SSE,151,3.5,3.5,80,0.00,CLR,,0.00,0.0,WeatherDisplay:10.37,2013-10-30 04:31:00,
2013-10-30 00:36:00,38.5,33.5,30.23,SSE,147,6.9,6.9,82,0.00,CLR,,0.00,0.0,WeatherDisplay:10.37,2013-10-30 04:36:00,
2013-10-30 00:41:00,38.7,34.0,30.23,SSE,165,3.5,3.5,83,0.00,CLR,,0.00,0.0,WeatherDisplay:10.37,2013-10-30 04:41:00,
2013-10-30 00:46:00,38.9,34.5,30.23,South,170,3.5,3.5,84,0.00,CLR,,0.00,0.0,WeatherDisplay:10.37,2013-10-30 04:46:00,
2013-10-30 00:51:00,39.2,34.8,30.23,SSE,148,3.5,3.5,84,0.00,CLR,,0.00,0.0,WeatherDisplay:10.37,2013-10-30 04:51:00,
2013-10-30 00:56:00,39.4,35.0,30.23,South,178,3.0,3.0,84,0.00,CLR,,0.00,0.0,WeatherDisplay:10.37,2013-10-30 04:56:00,
2013-10-30 01:01:00,39.5,35.1,30.23,South,182,3.5,3.5,84,0.00,CLR,,0.00,0.0,WeatherDisplay:10.37,2013-10-30 05:01:00,
2013-10-30 01:06:00,39.6,35.2,30.23,SSE,163,3.0,3.0,84,0.00,CLR,,0.00,0.0,WeatherDisplay:10.37,2013-10-30 05:06:00,
2013-10-30 01:11:00,39.7,35.3,30.23,South,171,3.5,3.5,84,0.00,CLR,,0.00,0.0,WeatherDisplay:10.37,2013-10-30 05:11:00,
2013-10-30 01:16:00,39.8,35.4,30.23,SE,138,3.5,3.5,84,0.00,CLR,,0.00,0.0,WeatherDisplay:10.37,2013-10-30 05:16:00,
2013-10-30 01:21:00,39.9,35.5,30.23,South,175,3.5,3.5,84,0.00,CLR,,0.00,0.0,WeatherDisplay:10.37,2013-10-30 05:21:00,
2013-10-30 01:26:00,39.9,35.5,30.23,SSE,165,3.0,3.0,84,0.00,CLR,,0.00,0.0,WeatherDisplay:10.37,2013-10-30 05:26:00,
2013-10-30 01:31:00,39.9,35.8,30.23,South,179,3.5,3.5,85,0.00,CLR,,0.00,0.0,WeatherDisplay:10.37,2013-10-30 05:31:00,
2013-10-30 01:36:00,39.9,35.8,30.23,South,171,3.5,3.5,85,0.00,CLR,,0.00,0.0,WeatherDisplay:10.37,2013-10-30 05:36:00,
2013-10-30 01:41:00,39.9,35.8,30.23,South,187,2.3,2.3,85,0.00,CLR,,0.00,0.0,WeatherDisplay:10.37,2013-10-30 05:41:00,
2013-10-30 01:46:00,39.9,36.1,30.23,South,186,1.2,0.0,86,0.00,CLR,,0.00,0.0,WeatherDisplay:10.37,2013-10-30 05:46:00,
2013-10-30 01:51:00,39.8,36.0,30.23,SSW,192,2.3,0.0,86,0.00,CLR,,0.00,0.0,WeatherDisplay:10.37,2013-10-30 05:51:00,
2013-10-30 01:56:00,39.6,35.8,30.23,SSW,192,0.0,0.0,86,0.00,CLR,,0.00,0.0,WeatherDisplay:10.37,2013-10-30 05:56:00,
2013-10-30 02:01:00,39.3,35.5,30.23,SSW,192,0.0,0.0,86,0.00,CLR,,0.00,0.0,WeatherDisplay:10.37,2013-10-30 06:01:00,
2013-10-30 02:06:00,39.0,35.2,30.22,SSW,192,0.0,0.0,86,0.00,CLR,,0.00,0.0,WeatherDisplay:10.37,2013-10-30 06:06:00,
2013-10-30 02:11:00,38.7,34.9,30.22,SSW,192,0.0,0.0,86,0.00,CLR,,0.00,0.0,WeatherDisplay:10.37,2013-10-30 06:11:00,
2013-10-30 02:16:00,38.4,34.9,30.22,SSW,192,0.0,0.0,87,0.00,CLR,,0.00,0.0,WeatherDisplay:10.37,2013-10-30 06:16:00,
2013-10-30 02:21:00,38.1,34.9,30.22,SSW,192,0.0,0.0,88,0.00,CLR,,0.00,0.0,WeatherDisplay:10.37,2013-10-30 06:21:00,
2013-10-30 02:26:00,37.9,34.7,30.22,SSW,192,0.0,0.0,88,0.00,CLR,,0.00,0.0,WeatherDisplay:10.37,2013-10-30 06:26:00,
2013-10-30 02:31:00,37.6,34.7,30.22,SSW,192,0.0,0.0,89,0.00,CLR,,0.00,0.0,WeatherDisplay:10.37,2013-10-30 06:31:00,
2013-10-30 02:36:00,37.4,34.5,30.22,SSW,192,0.0,0.0,89,0.00,CLR,,0.00,0.0,WeatherDisplay:10.37,2013-10-30 06:36:00,
2013-10-30 02:41:00,37.2,34.3,30.21,SSW,192,2.3,2.3,89,0.00,CLR,,0.00,0.0,WeatherDisplay:10.37,2013-10-30 06:41:00,
2013-10-30 02:46:00,37.0,34.3,30.21,South,186,2.3,2.3,90,0.00,CLR,,0.00,0.0,WeatherDisplay:10.37,2013-10-30 06:46:00,
2013-10-30 02:51:00,37.0,34.6,30.20,South,171,2.3,2.3,91,0.00,CLR,,0.00,0.0,WeatherDisplay:10.37,2013-10-30 06:51:00,
2013-10-30 02:56:00,37.0,34.6,30.20,SSE,162,3.5,3.5,91,0.00,CLR,,0.00,0.0,WeatherDisplay:10.37,2013-10-30 06:56:00,
2013-10-30 03:01:00,37.0,34.6,30.20,SSE,163,3.5,3.5,91,0.00,CLR,,0.00,0.0,WeatherDisplay:10.37,2013-10-30 07:01:00,
2013-10-30 03:06:00,37.0,34.9,30.20,South,181,3.5,3.5,92,0.00,CLR,,0.00,0.0,WeatherDisplay:10.37,2013-10-30 07:06:00,
2013-10-30 03:12:00,37.1,35.0,30.20,SSE,166,1.2,1.2,92,0.00,CLR,,0.00,0.0,WeatherDisplay:10.37,2013-10-30 07:12:00,
2013-10-30 03:17:00,37.1,35.0,30.20,South,173,2.3,2.3,92,0.00,CLR,,0.00,0.0,WeatherDisplay:10.37,2013-10-30 07:17:00,
2013-10-30 03:22:00,37.2,35.1,30.20,South,169,3.5,3.5,92,0.00,CLR,,0.00,0.0,WeatherDisplay:10.37,2013-10-30 07:22:00,
2013-10-30 03:27:00,37.3,35.2,30.20,SSE,166,3.5,3.5,92,0.00,CLR,,0.00,0.0,WeatherDisplay:10.37,2013-10-30 07:27:00,
2013-10-30 03:32:00,37.3,35.2,30.20,SSE,165,3.5,3.5,92,0.00,CLR,,0.00,0.0,WeatherDisplay:10.37,2013-10-30 07:32:00,
2013-10-30 03:37:00,37.3,35.2,30.20,SSE,165,2.3,2.3,92,0.00,CLR,,0.00,0.0,WeatherDisplay:10.37,2013-10-30 07:37:00,
2013-10-30 03:42:00,37.2,35.1,30.20,SSE,167,3.0,3.0,92,0.00,CLR,,0.00,0.0,WeatherDisplay:10.37,2013-10-30 07:42:00,
2013-10-30 03:47:00,37.4,35.6,30.20,South,169,1.2,1.2,93,0.00,CLR,,0.00,0.0,WeatherDisplay:10.37,2013-10-30 07:47:00,
2013-10-30 03:52:00,37.5,35.7,30.20,South,169,2.3,2.3,93,0.00,CLR,,0.00,0.0,WeatherDisplay:10.37,2013-10-30 07:52:00,
2013-10-30 03:57:00,37.5,35.4,30.20,SSE,161,3.5,3.5,92,0.00,CLR,,0.00,0.0,WeatherDisplay:10.37,2013-10-30 07:57:00,
2013-10-30 04:02:00,37.3,35.2,30.20,SSE,161,0.0,0.0,92,0.00,CLR,,0.00,0.0,WeatherDisplay:10.37,2013-10-30 08:02:00,
2013-10-30 04:07:00,37.1,35.0,30.20,SSE,161,2.3,2.3,92,0.00,CLR,,0.00,0.0,WeatherDisplay:10.37,2013-10-30 08:07:00,
2013-10-30 04:12:00,37.1,35.0,30.19,SSE,161,2.3,2.3,92,0.00,CLR,,0.00,0.0,WeatherDisplay:10.37,2013-10-30 08:12:00,
2013-10-30 04:17:00,37.1,35.3,30.19,SSE,161,3.5,3.5,93,0.00,CLR,,0.00,0.0,WeatherDisplay:10.37,2013-10-30 08:17:00,
2013-10-30 04:22:00,37.1,35.3,30.19,SSE,161,2.3,2.3,93,0.00,CLR,,0.00,0.0,WeatherDisplay:10.37,2013-10-30 08:22:00,
2013-10-30 04:27:00,37.1,35.3,30.19,SSE,161,3.5,3.5,93,0.00,CLR,,0.00,0.0,WeatherDisplay:10.37,2013-10-30 08:27:00,
2013-10-30 04:32:00,37.2,35.6,30.19,SSE,161,2.3,2.3,94,0.00,CLR,,0.00,0.0,WeatherDisplay:10.37,2013-10-30 08:32:00,
2013-10-30 04:37:00,37.3,35.7,30.19,SSE,161,3.5,3.5,94,0.00,CLR,,0.00,0.0,WeatherDisplay:10.37,2013-10-30 08:37:00,
2013-10-30 04:42:00,37.3,35.7,30.19,SSE,161,2.3,2.3,94,0.00,CLR,,0.00,0.0,WeatherDisplay:10.37,2013-10-30 08:42:00,
2013-10-30 04:47:00,37.2,35.4,30.19,SSE,161,1.2,1.2,93,0.00,CLR,,0.00,0.0,WeatherDisplay:10.37,2013-10-30 08:47:00,
2013-10-30 04:52:00,36.8,34.7,30.19,SSE,161,0.0,0.0,92,0.00,CLR,,0.00,0.0,WeatherDisplay:10.37,2013-10-30 08:52:00,
2013-10-30 04:57:00,36.2,33.8,30.18,SSE,161,0.0,0.0,91,0.00,CLR,,0.00,0.0,WeatherDisplay:10.37,2013-10-30 08:57:00,
2013-10-30 05:02:00,35.8,33.4,30.18,SSE,161,0.0,0.0,91,0.00,CLR,,0.00,0.0,WeatherDisplay:10.37,2013-10-30 09:02:00,
2013-10-30 05:07:00,35.4,33.3,30.18,SSE,161,0.0,0.0,92,0.00,CLR,,0.00,0.0,WeatherDisplay:10.37,2013-10-30 09:07:00,
2013-10-30 05:12:00,35.1,33.0,30.18,SSE,161,0.0,0.0,92,0.00,CLR,,0.00,0.0,WeatherDisplay:10.37,2013-10-30 09:12:00,
2013-10-30 05:17:00,34.8,32.7,30.18,SSE,161,0.0,0.0,92,0.00,CLR,,0.00,0.0,WeatherDisplay:10.37,2013-10-30 09:17:00,
2013-10-30 05:22:00,34.5,32.4,30.18,SSE,161,0.0,0.0,92,0.00,CLR,,0.00,0.0,WeatherDisplay:10.37,2013-10-30 09:22:00,
2013-10-30 05:27:00,34.2,32.1,30.18,SSE,161,0.0,0.0,92,0.00,CLR,,0.00,0.0,WeatherDisplay:10.37,2013-10-30 09:27:00,
2013-10-30 05:32:00,34.0,31.9,30.18,SSE,161,2.0,2.0,92,0.00,CLR,,0.00,0.0,WeatherDisplay:10.37,2013-10-30 09:32:00,
2013-10-30 05:37:00,34.2,32.4,30.18,SSE,161,2.3,2.3,93,0.00,CLR,,0.00,0.0,WeatherDisplay:10.37,2013-10-30 09:37:00,
2013-10-30 05:42:00,34.2,32.7,30.18,SSE,161,2.3,2.3,94,0.00,CLR,,0.00,0.0,WeatherDisplay:10.37,2013-10-30 09:42:00,
2013-10-30 05:47:00,34.1,32.3,30.17,SSE,161,3.5,3.5,93,0.00,CLR,,0.00,0.0,WeatherDisplay:10.37,2013-10-30 09:47:00,
2013-10-30 05:52:00,33.9,32.1,30.18,SSE,161,2.3,2.3,93,0.00,CLR,,0.00,0.0,WeatherDisplay:10.37,2013-10-30 09:52:00,
2013-10-30 05:57:00,34.0,32.5,30.17,SSE,164,3.5,3.5,94,0.00,CLR,,0.00,0.0,WeatherDisplay:10.37,2013-10-30 09:57:00,
2013-10-30 06:02:00,34.9,33.6,30.18,South,172,3.5,3.5,95,0.00,CLR,,0.00,0.0,WeatherDisplay:10.37,2013-10-30 10:02:00,
2013-10-30 06:07:00,35.8,34.5,30.17,South,171,3.5,3.5,95,0.00,CLR,,0.00,0.0,WeatherDisplay:10.37,2013-10-30 10:07:00,
2013-10-30 06:12:00,36.2,35.2,30.18,South,171,4.6,4.6,96,0.00,CLR,,0.00,0.0,WeatherDisplay:10.37,2013-10-30 10:12:00,
2013-10-30 06:17:00,36.5,35.5,30.18,South,171,2.3,2.3,96,0.00,CLR,,0.00,0.0,WeatherDisplay:10.37,2013-10-30 10:17:00,
2013-10-30 06:22:00,36.4,35.4,30.18,South,171,2.3,2.3,96,0.00,CLR,,0.00,0.0,WeatherDisplay:10.37,2013-10-30 10:22:00,
2013-10-30 06:27:00,36.4,35.1,30.18,South,175,3.5,3.5,95,0.00,CLR,,0.00,0.0,WeatherDisplay:10.37,2013-10-30 10:27:00,
2013-10-30 06:32:00,36.5,35.2,30.18,South,175,3.5,3.5,95,0.00,CLR,,0.00,0.0,WeatherDisplay:10.37,2013-10-30 10:32:00,
2013-10-30 06:37:00,36.6,35.3,30.18,South,175,3.5,3.5,95,0.00,CLR,,0.00,0.0,WeatherDisplay:10.37,2013-10-30 10:37:00,
2013-10-30 06:42:00,36.9,35.6,30.18,South,175,1.2,1.2,95,0.00,CLR,,0.00,0.0,WeatherDisplay:10.37,2013-10-30 10:42:00,
2013-10-30 06:47:00,37.1,36.1,30.19,South,174,3.5,3.5,96,0.00,CLR,,0.00,0.0,WeatherDisplay:10.37,2013-10-30 10:47:00,
2013-10-30 06:52:00,37.5,36.5,30.18,South,177,3.5,3.5,96,0.00,CLR,,0.00,0.0,WeatherDisplay:10.37,2013-10-30 10:52:00,
2013-10-30 06:57:00,37.8,36.8,30.18,South,177,3.5,3.5,96,0.00,CLR,,0.00,0.0,WeatherDisplay:10.37,2013-10-30 10:57:00,
2013-10-30 07:02:00,38.0,37.0,30.18,South,177,5.0,5.0,96,0.00,CLR,,0.00,0.0,WeatherDisplay:10.37,2013-10-30 11:02:00,
2013-10-30 07:07:00,38.4,37.4,30.18,South,170,3.5,3.5,96,0.00,CLR,,0.00,0.0,WeatherDisplay:10.37,2013-10-30 11:07:00,
2013-10-30 07:12:00,38.6,37.6,30.18,SSE,167,2.3,2.3,96,0.00,CLR,,0.00,0.0,WeatherDisplay:10.37,2013-10-30 11:12:00,
2013-10-30 07:17:00,38.6,37.6,30.18,SSE,167,1.2,1.2,96,0.00,CLR,,0.00,0.0,WeatherDisplay:10.37,2013-10-30 11:17:00,
2013-10-30 07:22:00,38.5,37.5,30.18,SSE,167,3.5,3.5,96,0.00,CLR,,0.00,0.0,WeatherDisplay:10.37,2013-10-30 11:22:00,
2013-10-30 07:27:00,38.4,37.4,30.18,SSE,167,3.5,3.5,96,0.00,CLR,,0.00,0.0,WeatherDisplay:10.37,2013-10-30 11:27:00,
2013-10-30 07:32:00,38.2,37.2,30.18,SSE,167,1.2,1.5,96,0.00,CLR,,0.00,0.0,WeatherDisplay:10.37,2013-10-30 11:32:00,
2013-10-30 07:37:00,37.9,36.6,30.18,SSE,164,1.2,1.5,95,0.00,CLR,,0.00,0.0,WeatherDisplay:10.37,2013-10-30 11:37:00,
2013-10-30 07:42:00,37.7,36.4,30.18,SSE,164,2.3,2.3,95,0.00,CLR,,0.00,0.0,WeatherDisplay:10.37,2013-10-30 11:42:00,
2013-10-30 07:47:00,37.5,36.2,30.18,SSE,164,1.2,1.2,95,0.00,CLR,,0.00,0.0,WeatherDisplay:10.37,2013-10-30 11:47:00,
2013-10-30 07:52:00,37.2,35.9,30.17,SSE,155,3.5,3.5,95,0.00,CLR,,0.00,0.0,WeatherDisplay:10.37,2013-10-30 11:52:00,
2013-10-30 07:57:00,36.9,35.6,30.18,SE,127,3.5,3.5,95,0.00,CLR,,0.00,0.0,WeatherDisplay:10.37,2013-10-30 11:57:00,
2013-10-30 08:02:00,37.0,35.7,30.18,SSE,165,4.6,4.6,95,0.00,CLR,,0.00,0.0,WeatherDisplay:10.37,2013-10-30 12:02:00,
2013-10-30 08:07:00,37.3,36.3,30.18,SSE,165,3.5,3.5,96,0.00,CLR,,0.00,0.0,WeatherDisplay:10.37,2013-10-30 12:07:00,
2013-10-30 08:12:00,37.7,36.7,30.18,SSE,165,2.3,2.3,96,0.00,CLR,,0.00,7.0,WeatherDisplay:10.37,2013-10-30 12:12:00,
2013-10-30 08:18:00,37.7,36.7,30.18,SSE,165,0.0,0.0,96,0.00,CLR,,0.00,11.0,WeatherDisplay:10.37,2013-10-30 12:18:00,
2013-10-30 08:23:00,37.5,36.5,30.18,SSE,165,2.3,2.3,96,0.00,CLR,,0.00,14.0,WeatherDisplay:10.37,2013-10-30 12:23:00,
2013-10-30 08:28:00,37.3,36.0,30.19,SSE,165,1.2,1.2,95,0.00,CLR,,0.00,18.0,WeatherDisplay:10.37,2013-10-30 12:28:00,
2013-10-30 08:33:00,37.2,35.9,30.19,SSE,165,3.5,3.5,95,0.00,CLR,,0.00,19.0,WeatherDisplay:10.37,2013-10-30 12:33:00,
2013-10-30 08:38:00,37.5,36.5,30.19,South,190,4.0,4.0,96,0.00,CLR,,0.00,23.0,WeatherDisplay:10.37,2013-10-30 12:38:00,
2013-10-30 08:43:00,38.4,37.4,30.19,South,173,5.8,5.8,96,0.00,CLR,,0.00,25.0,WeatherDisplay:10.37,2013-10-30 12:43:00,
2013-10-30 08:48:00,39.2,38.2,30.19,SSW,194,4.6,4.6,96,0.00,CLR,,0.00,28.0,WeatherDisplay:10.37,2013-10-30 12:48:00,
2013-10-30 08:53:00,39.7,38.7,30.19,South,175,6.9,6.9,96,0.00,CLR,,0.00,37.0,WeatherDisplay:10.37,2013-10-30 12:53:00,
2013-10-30 08:58:00,40.1,39.3,30.19,SSW,194,4.6,4.6,97,0.00,CLR,,0.00,37.0,WeatherDisplay:10.37,2013-10-30 12:58:00,
2013-10-30 09:03:00,40.5,39.4,30.19,South,177,3.5,3.5,96,0.00,CLR,,0.00,58.0,WeatherDisplay:10.37,2013-10-30 13:03:00,
2013-10-30 09:08:00,40.9,40.1,30.20,South,175,4.6,4.6,97,0.00,CLR,,0.00,47.0,WeatherDisplay:10.37,2013-10-30 13:08:00,
2013-10-30 09:13:00,41.1,40.3,30.20,SSE,165,4.0,4.0,97,0.00,CLR,,0.00,91.0,WeatherDisplay:10.37,2013-10-30 13:13:00,
2013-10-30 09:18:00,41.6,40.5,30.20,South,184,5.0,5.0,96,0.00,CLR,,0.00,93.0,WeatherDisplay:10.37,2013-10-30 13:18:00,
2013-10-30 09:23:00,42.0,41.2,30.20,South,185,3.5,3.5,97,0.00,CLR,,0.00,114.0,WeatherDisplay:10.37,2013-10-30 13:23:00,
2013-10-30 09:28:00,42.4,41.6,30.20,South,172,5.8,5.8,97,0.00,CLR,,0.00,100.0,WeatherDisplay:10.37,2013-10-30 13:28:00,
2013-10-30 09:33:00,42.8,41.7,30.20,South,184,4.0,4.0,96,0.00,CLR,,0.00,114.0,WeatherDisplay:10.37,2013-10-30 13:33:00,
2013-10-30 09:38:00,43.2,42.1,30.20,South,180,4.6,4.6,96,0.00,CLR,,0.00,93.0,WeatherDisplay:10.37,2013-10-30 13:38:00,
2013-10-30 09:43:00,43.6,42.3,30.20,South,186,4.6,4.6,95,0.00,CLR,,0.00,98.0,WeatherDisplay:10.37,2013-10-30 13:43:00,
2013-10-30 09:48:00,43.9,42.6,30.20,South,175,4.6,4.6,95,0.00,CLR,,0.00,128.0,WeatherDisplay:10.37,2013-10-30 13:48:00,
2013-10-30 09:53:00,44.4,42.8,30.20,South,181,5.0,5.0,94,0.00,CLR,,0.00,104.0,WeatherDisplay:10.37,2013-10-30 13:53:00,
2013-10-30 09:58:00,44.9,43.0,30.20,South,182,4.6,4.6,93,0.00,CLR,,0.00,144.0,WeatherDisplay:10.37,2013-10-30 13:58:00,
2013-10-30 10:03:00,45.4,43.2,30.20,South,178,4.6,4.6,92,0.00,OVC,,0.00,174.0,WeatherDisplay:10.37,2013-10-30 14:03:00,
2013-10-30 10:08:00,46.1,43.6,30.19,South,179,4.6,4.6,91,0.00,OVC,,0.00,155.0,WeatherDisplay:10.37,2013-10-30 14:08:00,
2013-10-30 10:13:00,46.8,43.7,30.19,SSE,168,4.6,4.6,89,0.00,OVC,,0.00,151.0,WeatherDisplay:10.37,2013-10-30 14:13:00,
2013-10-30 10:18:00,47.4,44.0,30.19,South,178,3.5,3.5,88,0.00,OVC,,0.00,206.0,WeatherDisplay:10.37,2013-10-30 14:18:00,
2013-10-30 10:23:00,48.2,44.5,30.19,South,180,3.5,3.5,87,0.00,OVC,,0.00,258.0,WeatherDisplay:10.37,2013-10-30 14:23:00,
2013-10-30 10:28:00,49.1,44.8,30.19,SSW,192,3.5,3.5,85,0.00,OVC,,0.00,290.0,WeatherDisplay:10.37,2013-10-30 14:28:00,
2013-10-30 10:33:00,50.0,45.4,30.19,South,191,4.0,4.0,84,0.00,OVC,,0.00,265.0,WeatherDisplay:10.37,2013-10-30 14:33:00,
2013-10-30 10:38:00,50.9,45.6,30.19,South,191,3.5,3.5,82,0.00,OVC,,0.00,290.0,WeatherDisplay:10.37,2013-10-30 14:38:00,
2013-10-30 10:43:00,51.7,45.4,30.19,South,191,0.0,0.0,79,0.00,OVC,,0.00,290.0,WeatherDisplay:10.37,2013-10-30 14:43:00,
2013-10-30 10:48:00,52.3,46.0,30.18,South,191,1.2,0.0,79,0.00,OVC,,0.00,322.0,WeatherDisplay:10.37,2013-10-30 14:48:00,
2013-10-30 10:53:00,53.0,46.3,30.18,South,191,3.5,3.5,78,0.00,OVC,,0.00,330.0,WeatherDisplay:10.37,2013-10-30 14:53:00,
2013-10-30 10:58:00,53.6,46.2,30.18,South,191,2.3,2.3,76,0.00,OVC,,0.00,346.0,WeatherDisplay:10.37,2013-10-30 14:58:00,
2013-10-30 11:03:00,54.0,46.3,30.18,South,191,3.0,3.0,75,0.00,OVC,,0.00,357.0,WeatherDisplay:10.37,2013-10-30 15:03:00,
2013-10-30 11:08:00,54.2,45.7,30.18,SW,216,3.5,3.5,73,0.00,OVC,,0.00,366.0,WeatherDisplay:10.37,2013-10-30 15:08:00,
2013-10-30 11:13:00,54.3,46.2,30.18,SSW,210,4.6,4.6,74,0.00,OVC,,0.00,376.0,WeatherDisplay:10.37,2013-10-30 15:13:00,
2013-10-30 11:18:00,54.8,46.3,30.18,SW,218,1.2,1.2,73,0.00,OVC,,0.00,388.0,WeatherDisplay:10.37,2013-10-30 15:18:00,
2013-10-30 11:23:00,54.9,46.0,30.18,South,190,3.5,3.5,72,0.00,OVC,,0.00,397.0,WeatherDisplay:10.37,2013-10-30 15:23:00,
2013-10-30 11:28:00,55.3,46.4,30.18,South,185,2.3,2.3,72,0.00,OVC,,0.00,408.0,WeatherDisplay:10.37,2013-10-30 15:28:00,
2013-10-30 11:33:00,55.8,46.9,30.18,SW,225,2.3,2.3,72,0.00,OVC,,0.00,415.0,WeatherDisplay:10.37,2013-10-30 15:33:00,
2013-10-30 11:38:00,56.4,47.1,30.18,SW,225,1.2,1.2,71,0.00,OVC,,0.00,424.0,WeatherDisplay:10.37,2013-10-30 15:38:00,
2013-10-30 11:43:00,56.9,46.4,30.18,SW,225,2.3,2.3,68,0.00,OVC,,0.00,485.0,WeatherDisplay:10.37,2013-10-30 15:43:00,
2013-10-30 11:48:00,57.0,46.1,30.18,SW,225,0.0,0.0,67,0.00,OVC,,0.00,278.0,WeatherDisplay:10.37,2013-10-30 15:48:00,
2013-10-30 11:53:00,56.9,46.8,30.18,SW,225,1.2,1.2,69,0.00,OVC,,0.00,322.0,WeatherDisplay:10.37,2013-10-30 15:53:00,
2013-10-30 11:58:00,56.9,46.4,30.18,SW,225,2.3,2.3,68,0.00,OVC,,0.00,369.0,WeatherDisplay:10.37,2013-10-30 15:58:00,
2013-10-30 12:03:00,57.1,47.8,30.18,SW,225,1.2,0.0,71,0.00,OVC,,0.00,353.0,WeatherDisplay:10.37,2013-10-30 16:03:00,
2013-10-30 12:08:00,56.9,46.1,30.18,North,360,1.2,1.2,67,0.00,OVC,,0.00,320.0,WeatherDisplay:10.37,2013-10-30 16:08:00,
2013-10-30 12:13:00,56.6,45.8,30.18,WNW,302,1.2,0.0,67,0.00,OVC,,0.00,320.0,WeatherDisplay:10.37,2013-10-30 16:13:00,
2013-10-30 12:18:00,56.6,46.2,30.18,WNW,302,1.2,1.2,68,0.00,OVC,,0.00,332.0,WeatherDisplay:10.37,2013-10-30 16:18:00,
2013-10-30 12:23:00,56.9,46.1,30.18,SW,233,4.0,4.0,67,0.00,OVC,,0.00,318.0,WeatherDisplay:10.37,2013-10-30 16:23:00,
2013-10-30 12:28:00,56.9,46.4,30.18,SW,236,3.0,3.0,68,0.00,OVC,,0.00,258.0,WeatherDisplay:10.37,2013-10-30 16:28:00,
2013-10-30 12:33:00,56.8,46.0,30.18,SW,236,2.3,2.3,67,0.00,OVC,,0.00,257.0,WeatherDisplay:10.37,2013-10-30 16:33:00,
2013-10-30 12:38:00,56.9,46.1,30.18,SW,236,2.3,2.3,67,0.00,OVC,,0.00,241.0,WeatherDisplay:10.37,2013-10-30 16:38:00,
2013-10-30 12:43:00,56.8,46.3,30.17,SW,235,3.5,3.5,68,0.00,OVC,,0.00,230.0,WeatherDisplay:10.37,2013-10-30 16:43:00,
2013-10-30 12:48:00,56.7,46.3,30.17,SW,235,0.0,0.1,68,0.00,OVC,,0.00,232.0,WeatherDisplay:10.37,2013-10-30 16:48:00,
2013-10-30 12:53:00,56.9,46.1,30.17,SW,235,2.0,2.0,67,0.00,OVC,,0.00,313.0,WeatherDisplay:10.37,2013-10-30 16:53:00,
2013-10-30 12:58:00,57.3,46.0,30.16,SW,234,0.0,0.0,66,0.00,OVC,,0.00,490.0,WeatherDisplay:10.37,2013-10-30 16:58:00,
2013-10-30 13:03:00,57.7,46.4,30.16,SW,234,0.0,0.1,66,0.00,OVC,,0.00,561.0,WeatherDisplay:10.37,2013-10-30 17:03:00,
2013-10-30 13:08:00,58.0,46.3,30.16,SW,234,1.0,1.0,65,0.00,OVC,,0.00,540.0,WeatherDisplay:10.37,2013-10-30 17:08:00,
2013-10-30 13:13:00,58.7,47.4,30.15,ESE,108,2.3,2.3,66,0.00,CLR,,0.00,529.0,WeatherDisplay:10.37,2013-10-30 17:13:00,
2013-10-30 13:18:00,58.9,48.0,30.14,ESE,115,2.3,2.3,67,0.00,CLR,,0.00,524.0,WeatherDisplay:10.37,2013-10-30 17:18:00,
2013-10-30 13:23:00,59.2,47.4,30.14,SE,145,3.5,3.5,65,0.00,CLR,,0.00,524.0,WeatherDisplay:10.37,2013-10-30 17:23:00,
2013-10-30 13:28:00,59.5,48.1,30.13,SE,136,2.3,2.3,66,0.00,CLR,,0.00,508.0,WeatherDisplay:10.37,2013-10-30 17:28:00,
2013-10-30 13:33:00,60.0,49.4,30.13,South,175,3.5,3.5,68,0.00,CLR,,0.00,517.0,WeatherDisplay:10.37,2013-10-30 17:33:00,
2013-10-30 13:38:00,60.4,49.0,30.12,SSW,197,4.0,4.0,66,0.00,CLR,,0.00,540.0,WeatherDisplay:10.37,2013-10-30 17:38:00,
2013-10-30 13:43:00,60.6,48.8,30.12,South,186,6.0,6.0,65,0.00,CLR,,0.00,524.0,WeatherDisplay:10.37,2013-10-30 17:43:00,
2013-10-30 13:48:00,60.9,49.5,30.12,South,175,3.5,3.5,66,0.00,CLR,,0.00,531.0,WeatherDisplay:10.37,2013-10-30 17:48:00,
2013-10-30 13:53:00,61.2,48.9,30.11,SSE,151,4.0,4.0,64,0.00,CLR,,0.00,552.0,WeatherDisplay:10.37,2013-10-30 17:53:00,
2013-10-30 13:58:00,61.6,50.1,30.11,ENE,77,3.5,3.5,66,0.00,CLR,,0.00,555.0,WeatherDisplay:10.37,2013-10-30 17:58:00,
2013-10-30 14:03:00,61.7,49.0,30.11,ENE,62,4.6,4.6,63,0.00,CLR,,0.00,548.0,WeatherDisplay:10.37,2013-10-30 18:03:00,
2013-10-30 14:08:00,61.8,49.1,30.10,SW,217,3.5,3.5,63,0.00,CLR,,0.00,545.0,WeatherDisplay:10.37,2013-10-30 18:08:00,
2013-10-30 14:13:00,62.1,49.4,30.10,East,92,3.5,3.5,63,0.00,CLR,,0.00,552.0,WeatherDisplay:10.37,2013-10-30 18:13:00,
2013-10-30 14:18:00,62.3,49.5,30.09,SSE,162,3.5,3.5,63,0.00,CLR,,0.00,547.0,WeatherDisplay:10.37,2013-10-30 18:18:00,
2013-10-30 14:23:00,62.8,49.6,30.09,SSE,159,4.0,4.0,62,0.00,CLR,,0.00,543.0,WeatherDisplay:10.37,2013-10-30 18:23:00,
2013-10-30 14:28:00,63.0,50.6,30.09,ESE,115,3.5,3.5,64,0.00,CLR,,0.00,531.0,WeatherDisplay:10.37,2013-10-30 18:28:00,
2013-10-30 14:33:00,63.3,49.2,30.09,SSE,155,5.8,5.8,60,0.00,CLR,,0.00,496.0,WeatherDisplay:10.37,2013-10-30 18:33:00,
2013-10-30 14:38:00,63.1,49.0,30.08,SSW,209,4.6,4.6,60,0.00,CLR,,0.00,466.0,WeatherDisplay:10.37,2013-10-30 18:38:00,
2013-10-30 14:43:00,63.3,50.5,30.09,SSW,201,6.9,6.9,63,0.00,CLR,,0.00,452.0,WeatherDisplay:10.37,2013-10-30 18:43:00,
2013-10-30 14:48:00,63.2,49.1,30.09,SSE,152,8.1,8.1,60,0.00,CLR,,0.00,468.0,WeatherDisplay:10.37,2013-10-30 18:48:00,
2013-10-30 14:53:00,63.3,49.6,30.08,ESE,118,4.6,4.6,61,0.00,CLR,,0.00,455.0,WeatherDisplay:10.37,2013-10-30 18:53:00,
2013-10-30 14:58:00,63.6,49.9,30.08,SW,227,5.8,5.8,61,0.00,CLR,,0.00,408.0,WeatherDisplay:10.37,2013-10-30 18:58:00,
2013-10-30 15:03:00,63.8,50.1,30.08,SSE,161,6.9,6.9,61,0.00,CLR,,0.00,413.0,WeatherDisplay:10.37,2013-10-30 19:03:00,
2013-10-30 15:08:00,63.8,50.1,30.08,SW,229,10.4,10.4,61,0.00,CLR,,0.00,251.0,WeatherDisplay:10.37,2013-10-30 19:08:00,
2013-10-30 15:13:00,63.5,49.4,30.08,SSW,196,9.2,9.2,60,0.00,CLR,,0.00,227.0,WeatherDisplay:10.37,2013-10-30 19:13:00,
2013-10-30 15:18:00,63.1,49.4,30.08,SW,215,9.0,9.0,61,0.00,CLR,,0.00,388.0,WeatherDisplay:10.37,2013-10-30 19:18:00,
2013-10-30 15:23:00,63.1,49.0,30.08,South,176,9.0,9.0,60,0.00,CLR,,0.00,504.0,WeatherDisplay:10.37,2013-10-30 19:23:00,
2013-10-30 15:28:00,63.7,49.5,30.08,WSW,240,8.0,8.0,60,0.00,CLR,,0.00,475.0,WeatherDisplay:10.37,2013-10-30 19:28:00,
2013-10-30 15:33:00,64.3,49.7,30.08,SSW,205,7.0,7.0,59,0.00,CLR,,0.00,446.0,WeatherDisplay:10.37,2013-10-30 19:33:00,
2013-10-30 15:38:00,64.5,49.4,30.07,SW,215,8.0,8.0,58,0.00,CLR,,0.00,436.0,WeatherDisplay:10.37,2013-10-30 19:38:00,
2013-10-30 15:43:00,64.6,48.5,30.06,SSW,195,6.0,6.0,56,0.00,CLR,,0.00,417.0,WeatherDisplay:10.37,2013-10-30 19:43:00,
2013-10-30 15:48:00,64.5,48.4,30.07,WSW,243,4.6,4.6,56,0.00,CLR,,0.00,404.0,WeatherDisplay:10.37,2013-10-30 19:48:00,
2013-10-30 15:53:00,64.5,48.0,30.07,South,180,10.4,10.4,55,0.00,CLR,,0.00,425.0,WeatherDisplay:10.37,2013-10-30 19:53:00,
2013-10-30 15:58:00,64.3,47.8,30.07,WSW,248,8.1,8.1,55,0.00,CLR,,0.00,376.0,WeatherDisplay:10.37,2013-10-30 19:58:00,
2013-10-30 16:03:00,64.3,47.8,30.07,South,173,6.9,6.9,55,0.00,FEW,,0.00,313.0,WeatherDisplay:10.37,2013-10-30 20:03:00,
2013-10-30 16:08:00,64.2,48.2,30.07,South,170,9.2,9.2,56,0.00,FEW,,0.00,345.0,WeatherDisplay:10.37,2013-10-30 20:08:00,
2013-10-30 16:13:00,64.1,47.6,30.07,SSW,205,5.8,5.8,55,0.00,FEW,,0.00,316.0,WeatherDisplay:10.37,2013-10-30 20:13:00,
2013-10-30 16:18:00,64.1,48.1,30.07,South,191,11.5,11.5,56,0.00,SCT,,0.00,239.0,WeatherDisplay:10.37,2013-10-30 20:18:00,
2013-10-30 16:23:00,63.8,47.3,30.07,SSW,196,9.2,9.2,55,0.00,SCT,,0.00,244.0,WeatherDisplay:10.37,2013-10-30 20:23:00,
2013-10-30 16:28:00,63.7,47.2,30.06,SSW,196,5.8,5.8,55,0.00,SCT,,0.00,237.0,WeatherDisplay:10.37,2013-10-30 20:28:00,
2013-10-30 16:33:00,63.7,47.7,30.07,South,169,4.6,4.6,56,0.00,SCT,,0.00,234.0,WeatherDisplay:10.37,2013-10-30 20:33:00,
2013-10-30 16:39:00,63.6,47.1,30.06,South,173,4.6,4.6,55,0.00,BKN,,0.00,209.0,WeatherDisplay:10.37,2013-10-30 20:39:00,
2013-10-30 16:44:00,63.3,46.9,30.06,SE,139,5.8,5.8,55,0.00,BKN,,0.00,186.0,WeatherDisplay:10.37,2013-10-30 20:44:00,
2013-10-30 16:49:00,62.9,46.5,30.06,South,190,7.0,7.0,55,0.00,BKN,,0.00,165.0,WeatherDisplay:10.37,2013-10-30 20:49:00,
2013-10-30 16:54:00,62.6,46.2,30.06,SSW,213,8.1,8.1,55,0.00,BKN,,0.00,93.0,WeatherDisplay:10.37,2013-10-30 20:54:00,
2013-10-30 16:59:00,62.2,46.3,30.07,SW,217,10.4,10.4,56,0.00,BKN,,0.00,72.0,WeatherDisplay:10.37,2013-10-30 20:59:00,
2013-10-30 17:04:00,61.9,46.0,30.07,SSW,210,9.0,9.0,56,0.00,BKN,,0.00,83.0,WeatherDisplay:10.37,2013-10-30 21:04:00,
2013-10-30 17:09:00,61.6,46.2,30.07,South,177,6.9,6.9,57,0.00,BKN,,0.00,69.0,WeatherDisplay:10.37,2013-10-30 21:09:00,
2013-10-30 17:14:00,61.3,45.9,30.07,South,183,5.8,5.8,57,0.00,BKN,,0.00,69.0,WeatherDisplay:10.37,2013-10-30 21:14:00,
2013-10-30 17:19:00,61.0,45.7,30.07,SSW,200,5.0,5.0,57,0.00,BKN,,0.00,65.0,WeatherDisplay:10.37,2013-10-30 21:19:00,
2013-10-30 17:24:00,60.9,46.5,30.06,South,183,6.0,6.0,59,0.00,BKN,,0.00,58.0,WeatherDisplay:10.37,2013-10-30 21:24:00,
2013-10-30 17:29:00,60.6,45.7,30.06,South,170,5.8,5.8,58,0.00,BKN,,0.00,54.0,WeatherDisplay:10.37,2013-10-30 21:29:00,
2013-10-30 17:34:00,60.4,46.0,30.06,SE,136,3.5,3.5,59,0.00,BKN,,0.00,53.0,WeatherDisplay:10.37,2013-10-30 21:34:00,
2013-10-30 17:39:00,60.1,46.2,30.06,SSE,150,3.5,3.5,60,0.00,BKN,,0.00,47.0,WeatherDisplay:10.37,2013-10-30 21:39:00,
2013-10-30 17:44:00,59.7,46.2,30.05,SSE,150,1.2,1.2,61,0.00,BKN,,0.00,42.0,WeatherDisplay:10.37,2013-10-30 21:44:00,
2013-10-30 17:49:00,59.3,46.3,30.05,SSE,162,1.2,1.2,62,0.00,BKN,,0.00,42.0,WeatherDisplay:10.37,2013-10-30 21:49:00,
2013-10-30 17:54:00,59.0,46.0,30.04,SSE,162,0.0,0.0,62,0.00,BKN,,0.00,32.0,WeatherDisplay:10.37,2013-10-30 21:54:00,
2013-10-30 17:59:00,58.6,46.0,30.05,SSE,162,2.0,2.0,63,0.00,CLR,,0.00,23.0,WeatherDisplay:10.37,2013-10-30 21:59:00,
2013-10-30 18:04:00,58.3,45.8,30.04,SSE,162,1.2,0.0,63,0.00,CLR,,0.00,16.0,WeatherDisplay:10.37,2013-10-30 22:04:00,
2013-10-30 18:09:00,58.0,45.9,30.04,SSE,162,1.2,0.0,64,0.00,CLR,,0.00,12.0,WeatherDisplay:10.37,2013-10-30 22:09:00,
2013-10-30 18:14:00,57.5,45.4,30.04,SSE,162,1.2,1.2,64,0.00,CLR,,0.00,9.0,WeatherDisplay:10.37,2013-10-30 22:14:00,
2013-10-30 18:19:00,57.1,45.4,30.04,SSE,162,2.3,2.3,65,0.00,CLR,,0.00,5.0,WeatherDisplay:10.37,2013-10-30 22:19:00,
2013-10-30 18:24:00,56.8,45.2,30.04,SE,144,3.5,3.5,65,0.00,CLR,,0.00,0.0,WeatherDisplay:10.37,2013-10-30 22:24:00,
2013-10-30 18:29:00,56.5,45.3,30.04,South,172,3.5,3.5,66,0.00,CLR,,0.00,0.0,WeatherDisplay:10.37,2013-10-30 22:29:00,
2013-10-30 18:34:00,56.3,45.1,30.04,South,172,3.5,3.5,66,0.00,CLR,,0.00,0.0,WeatherDisplay:10.37,2013-10-30 22:34:00,
2013-10-30 18:39:00,56.2,45.0,30.04,South,173,2.3,2.3,66,0.00,CLR,,0.00,0.0,WeatherDisplay:10.37,2013-10-30 22:39:00,
2013-10-30 18:44:00,56.0,45.2,30.04,SSE,167,2.3,2.3,67,0.00,CLR,,0.00,0.0,WeatherDisplay:10.37,2013-10-30 22:44:00,
2013-10-30 18:49:00,55.8,45.0,30.05,South,178,5.8,5.8,67,0.00,CLR,,0.00,0.0,WeatherDisplay:10.37,2013-10-30 22:49:00,
2013-10-30 18:54:00,55.8,45.0,30.05,SSE,153,3.5,3.5,67,0.00,CLR,,0.00,0.0,WeatherDisplay:10.37,2013-10-30 22:54:00,
2013-10-30 18:59:00,55.7,44.9,30.04,SE,130,3.0,3.0,67,0.00,CLR,,0.00,0.0,WeatherDisplay:10.37,2013-10-30 22:59:00,
2013-10-30 19:04:00,55.4,44.6,30.04,SSE,157,3.5,3.5,67,0.00,CLR,,0.00,0.0,WeatherDisplay:10.37,2013-10-30 23:04:00,
2013-10-30 19:09:00,55.2,44.8,30.04,SE,140,3.5,3.5,68,0.00,CLR,,0.00,0.0,WeatherDisplay:10.37,2013-10-30 23:09:00,
2013-10-30 19:14:00,55.0,44.6,30.04,SE,140,1.2,1.2,68,0.00,CLR,,0.00,0.0,WeatherDisplay:10.37,2013-10-30 23:14:00,
2013-10-30 19:19:00,55.0,45.0,30.04,SSE,152,6.0,6.0,69,0.00,CLR,,0.00,0.0,WeatherDisplay:10.37,2013-10-30 23:19:00,
2013-10-30 19:24:00,55.1,44.7,30.04,South,169,4.0,4.0,68,0.00,CLR,,0.00,0.0,WeatherDisplay:10.37,2013-10-30 23:24:00,
2013-10-30 19:29:00,55.4,45.0,30.04,SSE,158,3.5,3.5,68,0.00,CLR,,0.00,0.0,WeatherDisplay:10.37,2013-10-30 23:29:00,
2013-10-30 19:34:00,55.4,44.6,30.04,ESE,123,2.3,2.3,67,0.00,CLR,,0.00,0.0,WeatherDisplay:10.37,2013-10-30 23:34:00,
2013-10-30 19:39:00,55.5,44.7,30.04,SE,137,3.5,3.5,67,0.00,CLR,,0.00,0.0,WeatherDisplay:10.37,2013-10-30 23:39:00,
2013-10-30 19:44:00,55.5,44.3,30.04,SSE,163,4.6,4.6,66,0.00,CLR,,0.00,0.0,WeatherDisplay:10.37,2013-10-30 23:44:00,
2013-10-30 19:49:00,55.6,44.4,30.05,SSE,150,5.8,5.8,66,0.00,CLR,,0.00,0.0,WeatherDisplay:10.37,2013-10-30 23:49:00,
2013-10-30 19:54:00,55.7,44.1,30.05,SSW,194,4.6,4.6,65,0.00,CLR,,0.00,0.0,WeatherDisplay:10.37,2013-10-30 23:54:00,
2013-10-30 19:59:00,55.7,44.1,30.04,SSE,163,3.5,3.5,65,0.00,CLR,,0.00,0.0,WeatherDisplay:10.37,2013-10-30 23:59:00,
2013-10-30 20:04:00,55.5,43.9,30.04,SSE,167,4.0,4.0,65,0.00,CLR,,0.00,0.0,WeatherDisplay:10.37,2013-10-31 00:04:00,
2013-10-30 20:09:00,55.5,43.5,30.04,SSE,157,3.5,3.5,64,0.00,CLR,,0.00,0.0,WeatherDisplay:10.37,2013-10-31 00:09:00,
2013-10-30 20:14:00,55.5,43.9,30.04,SSE,164,3.5,3.5,65,0.00,CLR,,0.00,0.0,WeatherDisplay:10.37,2013-10-31 00:14:00,
2013-10-30 20:19:00,55.4,43.8,30.04,SSE,168,3.5,3.5,65,0.00,CLR,,0.00,0.0,WeatherDisplay:10.37,2013-10-31 00:19:00,
2013-10-30 20:24:00,55.3,43.3,30.04,South,185,3.0,3.0,64,0.00,CLR,,0.00,0.0,WeatherDisplay:10.37,2013-10-31 00:24:00,
2013-10-30 20:29:00,55.4,43.0,30.04,South,181,6.9,6.9,63,0.00,CLR,,0.00,0.0,WeatherDisplay:10.37,2013-10-31 00:29:00,
2013-10-30 20:34:00,55.5,43.1,30.04,SSE,153,8.1,8.1,63,0.00,CLR,,0.00,0.0,WeatherDisplay:10.37,2013-10-31 00:34:00,
2013-10-30 20:39:00,55.5,43.1,30.03,South,180,8.1,8.1,63,0.00,CLR,,0.00,0.0,WeatherDisplay:10.37,2013-10-31 00:39:00,
2013-10-30 20:44:00,55.5,43.1,30.03,South,181,5.8,5.8,63,0.00,CLR,,0.00,0.0,WeatherDisplay:10.37,2013-10-31 00:44:00,
2013-10-30 20:49:00,55.5,42.7,30.03,South,188,4.6,4.6,62,0.00,CLR,,0.00,0.0,WeatherDisplay:10.37,2013-10-31 00:49:00,
2013-10-30 20:54:00,55.4,43.0,30.03,SE,126,4.6,4.6,63,0.00,CLR,,0.00,0.0,WeatherDisplay:10.37,2013-10-31 00:54:00,
2013-10-30 20:59:00,55.3,42.9,30.02,SSE,153,5.0,5.0,63,0.00,CLR,,0.00,0.0,WeatherDisplay:10.37,2013-10-31 00:59:00,
2013-10-30 21:04:00,55.1,43.1,30.02,SSE,157,4.0,4.0,64,0.00,CLR,,0.00,0.0,WeatherDisplay:10.37,2013-10-31 01:04:00,
2013-10-30 21:09:00,55.1,43.1,30.01,SSW,198,3.5,3.5,64,0.00,CLR,,0.00,0.0,WeatherDisplay:10.37,2013-10-31 01:09:00,
2013-10-30 21:14:00,55.0,43.4,30.01,SSE,163,3.5,3.5,65,0.00,CLR,,0.00,0.0,WeatherDisplay:10.37,2013-10-31 01:14:00,
2013-10-30 21:19:00,54.9,43.7,30.01,SSE,153,9.2,9.2,66,0.00,CLR,,0.00,0.0,WeatherDisplay:10.37,2013-10-31 01:19:00,
2013-10-30 21:24:00,55.0,44.2,30.00,South,171,9.2,9.2,67,0.00,CLR,,0.00,0.0,WeatherDisplay:10.37,2013-10-31 01:24:00,
2013-10-30 21:29:00,55.1,44.3,30.00,SE,139,6.0,6.0,67,0.00,CLR,,0.00,0.0,WeatherDisplay:10.37,2013-10-31 01:29:00,
2013-10-30 21:34:00,55.2,44.8,30.00,SE,142,6.9,6.9,68,0.00,CLR,,0.00,0.0,WeatherDisplay:10.37,2013-10-31 01:34:00,
2013-10-30 21:39:00,55.1,44.7,30.00,South,171,8.1,8.1,68,0.00,CLR,,0.00,0.0,WeatherDisplay:10.37,2013-10-31 01:39:00,
2013-10-30 21:44:00,55.2,45.2,30.00,SSE,166,5.8,5.8,69,0.00,CLR,,0.00,0.0,WeatherDisplay:10.37,2013-10-31 01:44:00,
2013-10-30 21:49:00,55.3,45.3,30.00,South,173,5.8,5.8,69,0.00,CLR,,0.00,0.0,WeatherDisplay:10.37,2013-10-31 01:49:00,
2013-10-30 21:54:00,55.3,45.7,29.99,South,183,6.0,6.0,70,0.00,CLR,,0.00,0.0,WeatherDisplay:10.37,2013-10-31 01:54:00,
2013-10-30 21:59:00,55.4,45.8,29.99,SSE,157,8.1,8.1,70,0.00,CLR,,0.00,0.0,WeatherDisplay:10.37,2013-10-31 01:59:00,
2013-10-30 22:04:00,55.4,46.2,29.99,SSE,163,7.0,7.0,71,0.00,CLR,,0.00,0.0,WeatherDisplay:10.37,2013-10-31 02:04:00,
2013-10-30 22:09:00,55.5,46.6,29.99,South,169,5.8,5.8,72,0.00,CLR,,0.00,0.0,WeatherDisplay:10.37,2013-10-31 02:09:00,
2013-10-30 22:14:00,55.7,46.8,29.99,South,183,9.2,9.2,72,0.00,CLR,,0.00,0.0,WeatherDisplay:10.37,2013-10-31 02:14:00,
2013-10-30 22:19:00,55.7,46.9,29.98,South,171,5.0,10.0,72,0.00,CLR,,0.00,0.0,WeatherDisplay:10.37,2013-10-31 02:19:00,
2013-10-30 22:24:00,55.8,47.3,29.98,South,171,6.0,10.0,73,0.00,CLR,,0.00,0.0,WeatherDisplay:10.37,2013-10-31 02:24:00,
2013-10-30 22:29:00,55.8,47.3,29.98,South,170,6.0,9.0,73,0.00,CLR,,0.00,0.0,WeatherDisplay:10.37,2013-10-31 02:29:00,
2013-10-30 22:34:00,55.9,47.7,29.98,South,172,5.0,9.0,74,0.00,CLR,,0.00,0.0,WeatherDisplay:10.37,2013-10-31 02:34:00,
2013-10-30 22:39:00,56.0,47.8,29.98,South,174,6.0,12.0,74,0.00,CLR,,0.00,0.0,WeatherDisplay:10.37,2013-10-31 02:39:00,
2013-10-30 22:44:00,56.1,47.9,29.98,South,184,3.0,10.0,74,0.00,CLR,,0.00,0.0,WeatherDisplay:10.37,2013-10-31 02:44:00,
2013-10-30 22:49:00,56.1,48.3,29.97,South,178,7.0,12.0,75,0.00,CLR,,0.00,0.0,WeatherDisplay:10.37,2013-10-31 02:49:00,
2013-10-30 22:54:00,55.7,48.9,29.96,SSE,157,13.8,13.8,78,0.01,RA,,0.01,0.0,WeatherDisplay:10.37,2013-10-31 02:54:00,
2013-10-30 22:59:00,55.1,49.4,29.95,SSE,159,8.1,8.1,81,0.02,RA,,0.02,0.0,WeatherDisplay:10.37,2013-10-31 02:59:00,
2013-10-30 23:00:00,55.1,49.4,29.95,SSE,164,4.0,4.0,81,0.02,RA,,0.02,0.0,WeatherDisplay:10.37,2013-10-31 03:00:00,
2013-10-30 23:05:00,54.5,49.8,29.95,SE,132,4.6,4.6,84,0.02,RA,,0.02,0.0,WeatherDisplay:10.37,2013-10-31 03:05:00,
2013-10-30 23:10:00,54.0,49.6,29.95,South,186,5.8,5.8,85,0.02,CLR,,0.02,0.0,WeatherDisplay:10.37,2013-10-31 03:10:00,
2013-10-30 23:15:00,53.7,49.6,29.95,South,173,6.9,6.9,86,0.02,CLR,,0.02,0.0,WeatherDisplay:10.37,2013-10-31 03:15:00,
2013-10-30 23:20:00,53.6,49.5,29.95,SSW,200,6.0,6.0,86,0.02,CLR,,0.02,0.0,WeatherDisplay:10.37,2013-10-31 03:20:00,
2013-10-30 23:25:00,53.5,49.7,29.94,South,169,8.1,8.1,87,0.02,CLR,,0.02,0.0,WeatherDisplay:10.37,2013-10-31 03:25:00,
2013-10-30 23:30:00,53.5,49.7,29.94,South,189,9.2,9.2,87,0.03,RA,,0.03,0.0,WeatherDisplay:10.37,2013-10-31 03:30:00,
2013-10-30 23:35:00,53.3,49.8,29.94,South,186,6.9,6.9,88,0.03,RA,,0.03,0.0,WeatherDisplay:10.37,2013-10-31 03:35:00,
2013-10-30 23:40:00,53.2,49.7,29.94,SE,146,3.5,3.5,88,0.03,CLR,,0.03,0.0,WeatherDisplay:10.37,2013-10-31 03:40:00,
2013-10-30 23:45:00,53.1,49.9,29.94,SSW,199,6.0,6.0,89,0.03,CLR,,0.03,0.0,WeatherDisplay:10.37,2013-10-31 03:45:00,
2013-10-30 23:50:00,53.0,49.8,29.95,South,186,6.0,6.0,89,0.03,CLR,,0.03,0.0,WeatherDisplay:10.37,2013-10-31 03:50:00,
2013-10-30 23:55:00,53.0,50.1,29.94,SSE,156,10.4,10.4,90,0.02,CLR,,0.03,0.0,WeatherDisplay:10.37,2013-10-31 03:55:00,